Time;durP1;ratioP1;P1;durP2;ratioP2;P2;SDS_P1;SDS_P2;PMS_P1;PMS_P2;Temp;Humidity;BMP_temperature;BMP_pressure;BME280_temperature;BME280_humidity;BME280_pressure;Samples;Min_cycle;Max_cycle;Signal;HPM_P1;HPM_P2
2023/10/06 18:22:33;;;;;;;11.73;4.07;;;;;;;15.98;82.86;102179.09;5096180;27;1562518;-74
2023/10/06 18:24:59;;;;;;;10.93;4.47;;;;;;;15.93;83.58;102175.66;5113818;28;20035;-74
2023/10/06 18:27:24;;;;;;;13.25;4.53;;;;;;;15.93;83.48;102177.47;5116428;28;20039;-74
2023/10/06 18:29:50;;;;;;;14.20;4.53;;;;;;;15.90;84.18;102178.41;5113937;28;20431;-74
2023/10/06 18:32:16;;;;;;;18.05;4.40;;;;;;;15.87;84.44;102183.78;5112760;28;20108;-74
2023/10/06 18:34:42;;;;;;;14.15;4.85;;;;;;;15.85;84.88;102178.50;5123614;27;20099;-75
2023/10/06 18:37:07;;;;;;;13.38;4.50;;;;;;;15.80;84.57;102174.16;5128053;27;20568;-75
2023/10/06 18:39:34;;;;;;;12.23;4.25;;;;;;;15.79;84.67;102180.44;5126192;28;20031;-75
2023/10/06 18:42:00;;;;;;;14.85;4.40;;;;;;;15.77;85.16;102174.25;5124872;28;20352;-75
2023/10/06 18:44:27;;;;;;;16.15;4.38;;;;;;;15.74;84.89;102180.53;5115202;27;20392;-75
2023/10/06 18:46:52;;;;;;;11.63;4.22;;;;;;;15.72;85.40;102181.47;5126718;28;20038;-75
2023/10/06 18:49:18;;;;;;;14.20;4.57;;;;;;;15.69;85.80;102177.03;5126402;28;20043;-75
2023/10/06 18:51:43;;;;;;;12.55;4.05;;;;;;;15.68;85.10;102173.50;5125323;28;20471;-75
2023/10/06 18:54:10;;;;;;;18.50;4.95;;;;;;;15.66;86.15;102169.97;5125136;28;20446;-74
2023/10/06 18:56:37;;;;;;;19.63;4.43;;;;;;;15.63;86.58;102163.84;5126422;28;20050;-74
2023/10/06 18:59:03;;;;;;;10.18;3.33;;;;;;;15.60;86.18;102164.78;5127967;28;20060;-74
2023/10/06 19:01:29;;;;;;;13.85;4.40;;;;;;;15.58;86.14;102163.94;5124764;28;20046;-74
2023/10/06 19:03:55;;;;;;;10.60;4.38;;;;;;;15.54;87.41;102158.69;5127680;27;20126;-74
2023/10/06 19:06:20;;;;;;;13.32;4.22;;;;;;;15.55;86.59;102171.13;5127890;27;20066;-75
2023/10/06 19:08:54;;;;;;;14.57;4.60;;;;;;;15.50;86.47;102176.56;5127292;28;20432;-75
2023/10/06 19:11:21;;;;;;;13.70;4.38;;;;;;;15.49;86.51;102183.69;5124978;27;20042;-75
2023/10/06 19:13:47;;;;;;;14.20;4.80;;;;;;;15.48;87.48;102189.09;5126085;28;20040;-75
2023/10/06 19:16:14;;;;;;;12.25;3.90;;;;;;;15.46;87.78;102183.75;5127141;28;20119;-75
2023/10/06 19:18:41;;;;;;;9.55;4.32;;;;;;;15.43;88.02;102186.50;5111400;28;20073;-75
2023/10/06 19:21:06;;;;;;;10.35;4.10;;;;;;;15.41;87.73;102191.00;5100049;28;20075;-75
2023/10/06 19:23:34;;;;;;;10.05;4.22;;;;;;;15.43;88.26;102182.94;5098965;28;20111;-75
2023/10/06 19:26:11;;;;;;;14.52;4.22;;;;;;;15.43;88.48;102177.59;5088741;28;20084;-75
2023/10/06 19:28:37;;;;;;;11.90;4.20;;;;;;;15.42;88.46;102171.38;5106475;28;20078;-75
2023/10/06 19:31:05;;;;;;;17.90;5.18;;;;;;;15.38;88.37;102167.03;5098527;28;20020;-75
2023/10/06 19:33:31;;;;;;;13.32;4.40;;;;;;;15.37;88.66;102165.25;5091023;28;20127;-75
2023/10/06 19:36:04;;;;;;;11.70;4.10;;;;;;;15.36;88.83;102165.31;5092770;28;20123;-74
2023/10/06 19:38:31;;;;;;;10.43;4.30;;;;;;;15.35;88.78;102158.19;5093326;28;20042;-75
2023/10/06 19:40:59;;;;;;;9.15;4.28;;;;;;;15.32;88.41;102156.47;5091339;28;20076;-74
2023/10/06 19:43:26;;;;;;;8.85;3.97;;;;;;;15.30;88.57;102170.75;5091227;28;20123;-74
2023/10/06 19:45:52;;;;;;;14.80;4.68;;;;;;;15.32;88.61;102163.59;5091708;28;20354;-75
2023/10/06 19:48:18;;;;;;;12.45;4.85;;;;;;;15.31;88.64;102175.22;5088787;28;20067;-75
2023/10/06 19:50:46;;;;;;;14.32;4.82;;;;;;;15.28;89.05;102176.13;5087339;28;20038;-74
2023/10/06 19:53:12;;;;;;;10.32;4.20;;;;;;;15.27;88.81;102177.91;5091524;28;20036;-74
2023/10/06 19:55:41;;;;;;;10.80;4.40;;;;;;;15.28;88.73;102178.78;5091722;28;20063;-74
2023/10/06 19:58:11;;;;;;;11.55;4.47;;;;;;;15.24;89.33;102174.44;5092689;28;20036;-74
2023/10/06 20:00:40;;;;;;;11.88;4.88;;;;;;;15.24;89.42;102182.44;5092914;28;20040;-74
2023/10/06 20:03:06;;;;;;;12.55;4.38;;;;;;;15.23;88.91;102175.31;5092570;28;20051;-74
2023/10/06 20:05:36;;;;;;;10.55;4.70;;;;;;;15.21;88.65;102177.19;5092730;28;20032;-74
2023/10/06 20:08:02;;;;;;;14.80;5.05;;;;;;;15.20;89.42;102180.72;5092475;28;20183;-74
2023/10/06 20:10:30;;;;;;;11.57;4.45;;;;;;;15.18;89.34;102178.13;5092772;28;20088;-74
2023/10/06 20:12:59;;;;;;;14.10;4.78;;;;;;;15.16;89.43;102179.94;5091864;28;20032;-74
2023/10/06 20:15:31;;;;;;;10.20;5.10;;;;;;;15.15;89.43;102179.94;5091172;28;20100;-74
2023/10/06 20:17:58;;;;;;;10.98;5.13;;;;;;;15.12;89.98;102177.34;5092491;28;20036;-74
2023/10/06 20:20:25;;;;;;;12.40;4.75;;;;;;;15.04;90.68;102181.03;5090343;28;20487;-74
2023/10/06 20:22:52;;;;;;;14.68;4.72;;;;;;;14.98;90.48;102174.94;5090868;28;20078;-74
2023/10/06 20:25:19;;;;;;;9.13;5.00;;;;;;;14.95;90.40;102169.66;5092565;28;20032;-75
2023/10/06 20:27:48;;;;;;;9.38;4.43;;;;;;;14.92;90.87;102167.94;5077137;28;20055;-75
2023/10/06 20:30:19;;;;;;;9.82;4.95;;;;;;;14.87;91.18;102159.13;5079337;28;20091;-75
2023/10/06 20:32:50;;;;;;;12.55;4.47;;;;;;;14.82;90.18;102161.88;5091927;28;20039;-74
2023/10/06 20:35:16;;;;;;;11.10;4.50;;;;;;;14.80;90.36;102173.50;5090467;28;20036;-74
2023/10/06 20:37:43;;;;;;;10.55;4.95;;;;;;;14.75;91.58;102180.69;5091328;28;20046;-74
2023/10/06 20:40:10;;;;;;;22.10;5.53;;;;;;;14.71;91.73;102176.31;5091708;28;20065;-74
2023/10/06 20:42:36;;;;;;;12.80;5.15;;;;;;;14.69;92.64;102183.47;5082747;28;20040;-74
2023/10/06 20:45:03;;;;;;;13.55;5.03;;;;;;;14.68;92.99;102189.72;5084586;28;20040;-74
2023/10/06 20:47:31;;;;;;;10.30;4.85;;;;;;;14.66;92.72;102202.19;5060540;28;20127;-74
2023/10/06 20:49:58;;;;;;;9.93;4.70;;;;;;;14.65;92.53;102195.09;5091566;28;20047;-74
2023/10/06 20:52:23;;;;;;;12.45;5.55;;;;;;;14.64;92.27;102199.56;5091220;28;20089;-74
2023/10/06 20:54:49;;;;;;;11.68;4.97;;;;;;;14.62;92.87;102196.91;5091342;28;20039;-74
2023/10/06 20:57:15;;;;;;;13.82;4.72;;;;;;;14.60;92.97;102204.03;5091435;28;20023;-74
2023/10/06 20:59:41;;;;;;;14.77;5.10;;;;;;;14.56;93.24;102213.03;5091603;28;20032;-75
2023/10/06 21:02:06;;;;;;;9.50;4.35;;;;;;;14.52;93.41;102213.06;5091381;28;20054;-74
2023/10/06 21:04:32;;;;;;;17.98;5.20;;;;;;;14.53;93.12;102214.81;5064428;28;20114;-74
2023/10/06 21:06:58;;;;;;;11.65;4.97;;;;;;;14.49;94.06;102211.31;5088635;28;20032;-74
2023/10/06 21:09:24;;;;;;;11.32;4.32;;;;;;;14.48;94.21;102212.22;5091740;28;20032;-74
2023/10/06 21:11:49;;;;;;;14.02;4.88;;;;;;;14.46;94.00;102206.03;5090083;28;20526;-75
2023/10/06 21:14:15;;;;;;;13.98;5.47;;;;;;;14.44;94.11;102210.53;5072730;28;20440;-74
2023/10/06 21:16:44;;;;;;;12.57;5.15;;;;;;;14.41;93.77;102214.13;5090775;28;20166;-74
2023/10/06 21:19:12;;;;;;;15.02;4.57;;;;;;;14.37;93.96;102212.41;5083247;28;20399;-75
2023/10/06 21:21:37;;;;;;;9.90;5.10;;;;;;;14.35;94.23;102210.66;5084039;28;20052;-75
2023/10/06 21:24:05;;;;;;;14.52;5.57;;;;;;;14.32;95.05;102208.06;5089177;28;20036;-75
2023/10/06 21:26:34;;;;;;;12.65;4.95;;;;;;;14.29;95.26;102208.97;5091258;28;20119;-75
2023/10/06 21:29:01;;;;;;;9.80;4.82;;;;;;;14.25;95.24;102211.72;5089635;28;20044;-74
2023/10/06 21:31:26;;;;;;;15.45;5.68;;;;;;;14.22;94.79;102203.75;5079582;28;20163;-74
2023/10/06 21:33:52;;;;;;;11.52;4.75;;;;;;;14.15;95.10;102205.63;5088272;28;20047;-74
2023/10/06 21:36:18;;;;;;;15.40;4.95;;;;;;;14.15;95.62;102213.63;5082579;28;20113;-74
2023/10/06 21:38:45;;;;;;;9.85;4.50;;;;;;;14.09;96.05;102211.91;5068662;28;20051;-74
2023/10/06 21:41:11;;;;;;;13.27;5.25;;;;;;;14.10;96.22;102218.16;5090739;28;20043;-74
2023/10/06 21:43:36;;;;;;;11.15;5.20;;;;;;;14.05;96.04;102202.22;5090697;28;20398;-74
2023/10/06 21:46:06;;;;;;;15.85;5.07;;;;;;;14.04;96.41;102212.91;5076489;28;20031;-74
2023/10/06 21:48:32;;;;;;;10.47;4.63;;;;;;;14.00;96.37;102206.75;5089728;28;20143;-74
2023/10/06 21:50:57;;;;;;;10.43;5.30;;;;;;;13.95;96.48;102203.28;5071986;28;20142;-74
2023/10/06 21:53:23;;;;;;;10.27;4.85;;;;;;;13.92;96.92;102206.84;5081041;28;20048;-74
2023/10/06 21:55:49;;;;;;;14.15;5.00;;;;;;;13.89;97.73;102200.69;5068573;28;20040;-74
2023/10/06 21:58:15;;;;;;;11.32;5.32;;;;;;;13.87;97.28;102210.47;5089839;28;20036;-74
2023/10/06 22:00:44;;;;;;;18.08;5.20;;;;;;;13.86;97.46;102206.06;5090206;28;20046;-75
2023/10/06 22:03:12;;;;;;;13.40;4.80;;;;;;;13.85;97.68;102199.84;5084044;28;20113;-75
2023/10/06 22:05:39;;;;;;;13.88;5.50;;;;;;;13.81;97.95;102197.25;5080026;28;20098;-75
2023/10/06 22:08:06;;;;;;;11.50;5.13;;;;;;;13.73;98.32;102200.03;5089781;28;20036;-75
2023/10/06 22:10:34;;;;;;;8.43;5.07;;;;;;;13.72;98.67;102196.47;5089995;28;20364;-75
2023/10/06 22:13:01;;;;;;;13.57;4.95;;;;;;;13.68;98.69;102197.41;5087377;28;20080;-75
2023/10/06 22:15:27;;;;;;;8.98;4.50;;;;;;;13.67;99.11;102187.66;5077254;28;20086;-75
2023/10/06 22:17:55;;;;;;;12.05;4.65;;;;;;;13.66;99.29;102185.03;5083136;28;20439;-75
2023/10/06 22:20:21;;;;;;;13.02;5.30;;;;;;;13.62;99.57;102186.81;5087786;28;20028;-75
2023/10/06 22:22:50;;;;;;;12.18;4.90;;;;;;;13.58;99.84;102185.13;5071581;28;20076;-74
2023/10/06 22:25:17;;;;;;;12.25;5.05;;;;;;;13.60;99.65;102182.44;5075684;28;20451;-74
2023/10/06 22:27:42;;;;;;;10.60;4.53;;;;;;;13.57;99.82;102175.38;5086624;28;20097;-74
2023/10/06 22:30:11;;;;;;;12.27;4.65;;;;;;;13.57;99.85;102178.03;5088255;28;20048;-75
2023/10/06 22:32:43;;;;;;;13.23;4.50;;;;;;;13.55;99.80;102171.88;5082136;28;20109;-75
2023/10/06 22:35:11;;;;;;;10.18;4.85;;;;;;;13.56;100.00;102170.94;5080931;28;20040;-75
2023/10/06 22:37:36;;;;;;;16.33;4.95;;;;;;;13.57;99.70;102170.03;5075130;28;20120;-74
2023/10/06 22:40:03;;;;;;;11.52;4.78;;;;;;;13.54;99.93;102170.97;5089603;28;20048;-74
2023/10/06 22:42:29;;;;;;;10.82;4.32;;;;;;;13.52;99.84;102175.41;5087699;28;20126;-74
2023/10/06 22:44:54;;;;;;;11.30;4.78;;;;;;;13.50;99.96;102176.34;5089656;28;20475;-74
2023/10/06 22:47:20;;;;;;;12.30;5.13;;;;;;;13.50;100.00;102174.59;5088216;28;20075;-75
2023/10/06 22:49:45;;;;;;;12.57;4.70;;;;;;;13.51;100.00;102172.78;5076208;28;20083;-75
2023/10/06 22:52:13;;;;;;;13.88;4.63;;;;;;;13.49;100.00;102177.25;5084723;28;20056;-75
2023/10/06 22:54:40;;;;;;;16.08;4.63;;;;;;;13.50;99.99;102187.88;5088599;28;20040;-75
2023/10/06 22:57:06;;;;;;;11.82;4.63;;;;;;;13.52;100.00;102187.84;5070976;28;20577;-75
2023/10/06 22:59:32;;;;;;;15.77;5.55;;;;;;;13.50;99.76;102201.19;5087854;28;20036;-75
2023/10/06 23:01:59;;;;;;;13.25;5.57;;;;;;;13.47;100.00;102190.56;5083955;28;20044;-75
2023/10/06 23:04:26;;;;;;;12.25;4.53;;;;;;;13.51;100.00;102180.78;5081569;28;20033;-75
2023/10/06 23:06:51;;;;;;;13.55;4.93;;;;;;;13.49;100.00;102171.94;5070378;28;20040;-75
2023/10/06 23:09:17;;;;;;;10.88;4.95;;;;;;;13.47;100.00;102169.28;5074373;28;20131;-75
2023/10/06 23:11:44;;;;;;;11.70;4.78;;;;;;;13.45;100.00;102168.44;5092761;28;20123;-75
2023/10/06 23:14:09;;;;;;;12.73;5.07;;;;;;;13.44;100.00;102165.78;5081914;28;20362;-75
2023/10/06 23:16:39;;;;;;;11.50;4.57;;;;;;;13.41;100.00;102165.84;5090280;28;20085;-75
2023/10/06 23:19:05;;;;;;;11.63;4.97;;;;;;;13.40;100.00;102174.69;5087604;28;20454;-75
2023/10/06 23:21:31;;;;;;;13.52;5.05;;;;;;;13.38;100.00;102165.84;5081747;28;20053;-74
2023/10/06 23:24:07;;;;;;;13.25;4.93;;;;;;;13.36;100.00;102170.34;5074496;28;20112;-74
2023/10/06 23:26:33;;;;;;;14.00;4.95;;;;;;;13.34;100.00;102168.56;5078684;28;20508;-74
2023/10/06 23:28:59;;;;;;;11.10;4.97;;;;;;;13.33;100.00;102160.59;5084464;28;20024;-75
2023/10/06 23:31:25;;;;;;;10.48;4.65;;;;;;;13.31;100.00;102167.72;5090538;28;20109;-75
2023/10/06 23:33:51;;;;;;;10.30;4.53;;;;;;;13.30;100.00;102161.53;5079621;28;20040;-75
2023/10/06 23:36:17;;;;;;;11.02;4.70;;;;;;;13.30;100.00;102149.97;5083387;28;20102;-74
2023/10/06 23:38:42;;;;;;;11.88;4.85;;;;;;;13.29;100.00;102150.91;5067470;28;20051;-75
2023/10/06 23:41:12;;;;;;;10.10;5.07;;;;;;;13.28;100.00;102149.16;5085785;28;20072;-75
2023/10/06 23:43:38;;;;;;;10.73;4.75;;;;;;;13.25;100.00;102151.78;5085652;28;20039;-75
2023/10/06 23:46:14;;;;;;;14.77;4.82;;;;;;;13.25;100.00;102142.06;5085832;28;20080;-75
2023/10/06 23:48:46;;;;;;;10.52;4.70;;;;;;;13.23;100.00;102145.59;5084249;28;20051;-75
2023/10/06 23:51:15;;;;;;;10.45;5.03;;;;;;;13.19;100.00;102130.59;5087725;28;20100;-75
2023/10/06 23:53:41;;;;;;;14.52;5.20;;;;;;;13.15;100.00;102142.16;5091558;28;20032;-75
2023/10/06 23:56:22;;;;;;;12.25;4.93;;;;;;;13.16;100.00;102135.97;5074428;28;20506;-75
2023/10/06 23:58:51;;;;;;;12.57;4.95;;;;;;;13.11;100.00;102150.19;5073194;28;20040;-75
